createdAt,value
2019-03-21T00:00:15.728Z,11.69
2019-03-21T00:01:15.732Z,11.60
2019-03-21T00:02:15.940Z,11.67
2019-03-21T00:03:15.722Z,11.67
2019-03-21T00:04:15.711Z,11.69
2019-03-21T00:05:15.705Z,11.65
2019-03-21T00:06:15.704Z,11.62
2019-03-21T00:07:15.697Z,11.65
2019-03-21T01:25:42.468Z,11.35
2019-03-21T01:26:42.164Z,11.39
2019-03-21T01:27:42.212Z,11.32
2019-03-21T01:28:42.159Z,11.36
2019-03-21T01:29:42.150Z,11.33
2019-03-21T01:30:42.145Z,11.33
2019-03-21T01:31:42.140Z,11.36
2019-03-21T01:32:42.135Z,11.35
2019-03-21T01:33:42.128Z,11.36
2019-03-21T01:38:51.086Z,11.35
2019-03-21T01:39:51.080Z,11.37
2019-03-21T01:40:51.073Z,11.36
2019-03-21T01:41:51.070Z,11.33
2019-03-21T01:42:51.071Z,11.39
2019-03-21T01:43:51.058Z,11.39
2019-03-21T01:44:51.053Z,11.37
2019-03-21T01:46:51.058Z,11.36
2019-03-21T01:47:51.044Z,11.36
2019-03-21T01:48:51.034Z,11.32
2019-03-21T01:49:51.028Z,11.32
2019-03-21T01:50:51.024Z,11.29
2019-03-21T01:51:51.018Z,11.35
2019-03-21T01:52:51.015Z,11.28
2019-03-21T01:53:51.008Z,11.28
2019-03-21T01:54:51.005Z,11.29
2019-03-21T01:55:51.300Z,11.24
2019-03-21T01:56:50.998Z,11.22
2019-03-21T01:57:50.988Z,11.21
2019-03-21T01:58:50.985Z,11.28
2019-03-21T01:59:50.981Z,11.21
2019-03-21T02:00:50.975Z,11.25
2019-03-21T02:01:50.969Z,11.19
2019-03-21T02:02:50.966Z,11.22
2019-03-21T02:30:19.723Z,11.17
2019-03-21T02:31:19.273Z,11.15
2019-03-21T02:32:19.262Z,11.17
2019-03-21T02:33:19.262Z,11.14
2019-03-21T02:34:19.254Z,11.15
2019-03-21T02:35:19.251Z,11.10
2019-03-21T02:36:19.244Z,11.14
2019-03-21T02:37:19.241Z,11.11
2019-03-21T02:38:19.234Z,11.19
2019-03-21T02:39:19.230Z,11.14
2019-03-21T02:40:19.229Z,11.04
2019-03-21T02:41:19.222Z,11.17
2019-03-21T02:42:19.217Z,11.10
2019-03-21T02:43:19.213Z,11.10
2019-03-21T02:44:19.208Z,11.15
2019-03-21T02:45:19.276Z,11.09
2019-03-21T02:46:19.260Z,11.06
2019-03-21T02:47:19.192Z,11.10
2019-03-21T02:48:19.186Z,11.10
2019-03-21T04:52:39.408Z,10.66
2019-03-21T04:53:39.102Z,10.67
2019-03-21T04:54:39.095Z,10.63
2019-03-21T04:55:39.092Z,10.56
2019-03-21T04:56:39.085Z,10.60
2019-03-21T05:37:53.580Z,10.29
2019-03-21T08:41:39.719Z,13.44
2019-03-21T08:42:39.715Z,13.33
2019-03-21T08:43:39.710Z,13.46
2019-03-21T08:44:39.710Z,13.55
2019-03-21T08:45:39.705Z,13.70
2019-03-21T08:46:39.701Z,13.81
2019-03-21T08:47:39.695Z,13.91
2019-03-21T08:48:39.695Z,14.07
2019-03-21T08:49:39.688Z,14.15
2019-03-21T08:50:39.686Z,14.18
2019-03-21T08:51:39.684Z,14.15
2019-03-21T08:52:39.680Z,14.22
2019-03-21T08:53:39.673Z,14.20
2019-03-21T08:54:39.672Z,14.12
2019-03-21T08:55:39.667Z,13.97
2019-03-21T08:57:39.664Z,14.12
2019-03-21T08:58:39.657Z,14.18
2019-03-21T08:59:39.858Z,14.17
2019-03-21T09:00:39.650Z,14.15
2019-03-21T09:34:21.096Z,15.09
2019-03-21T09:35:21.043Z,15.14
2019-03-21T09:36:21.039Z,15.25
2019-03-21T09:37:21.040Z,15.27
2019-03-21T09:38:21.035Z,15.20
2019-03-21T09:39:21.037Z,15.11
2019-03-21T09:40:21.030Z,15.13
2019-03-21T09:41:21.030Z,15.17
2019-03-21T09:42:21.026Z,15.16
2019-03-21T09:43:21.025Z,15.10
2019-03-21T09:44:21.022Z,15.16
2019-03-21T09:45:21.020Z,15.31
2019-03-21T09:46:21.020Z,15.28
2019-03-21T09:48:21.013Z,15.46
2019-03-21T09:49:22.425Z,15.60
2019-03-21T09:50:21.013Z,15.54
2019-03-21T09:51:30.563Z,15.53
2019-03-21T09:52:21.004Z,15.54
2019-03-21T09:53:21.003Z,15.49
2019-03-21T09:54:21.001Z,15.56
2019-03-21T09:55:20.995Z,15.59
2019-03-21T11:10:24.382Z,16.97
2019-03-21T11:11:24.381Z,16.91
2019-03-21T11:12:24.376Z,16.93
2019-03-21T11:13:24.379Z,16.86
2019-03-21T11:14:24.372Z,16.96
